Adolfo Suárez Madrid-Barajas International Airport (MAD/LEMD)



Flight Aircraft Arriving
CPX937
EDDK - Cologne Bonn Airport
Germany Cologne, Germany
Flight Aircraft Departing
CPX936
EDDK - Cologne Bonn Airport
Germany Cologne, Germany


Airport Information
Location: Madrid,
Coordinates: 40.4936 / -3.56676
Field Elevation: 1,998ft
Longest Runway: 13,734ft
ILS Approaches: YES
Landing Fees: $5,754 per flight
Jet A Price: $0.28/lbs

Current Weather
METAR: LEMD 070230Z 02002KT CAVOK 03/02 Q1024 NOSIG
TAF: TAF LEMD 062300Z 0700/0806 VRB05KT 9999 FEW045 TX12/0715Z TN02/0706Z PROB30 TEMPO 0701/0709 3000 BR BKN014 PROB30 TEMPO 0703/0708 0800 FG VV002 BECMG 0712/0714 24012KT PROB40 TEMPO 0713/0803 24015G25KT 4000 RADZ BKN010 PROB30 TEMPO 0714/0720 0900 FG BKN004

Recent Arrivals
Date Flight Type Depart
10/06/2021 CPX936 A30F Cologne Bonn Airport (EDDK)
11/01/2019 CPX735 B738 Liège Airport (EBLG)
Recent Departures
Date Flight Type Arrive
10/06/2021 CPX937 A30F Cologne Bonn Airport (EDDK)
11/03/2019 CPX736 B738 Liège Airport (EBLG)